Time;durP1;ratioP1;P1;durP2;ratioP2;P2;SDS_P1;SDS_P2;PMS_P1;PMS_P2;Temp;Humidity;BMP_temperature;BMP_pressure;BME280_temperature;BME280_humidity;BME280_pressure;Samples;Min_cycle;Max_cycle;Signal;HPM_P1;HPM_P2
2023/04/04 00:00:21;;;;;;;0.40;0.40;;;;;;;2.42;61.03;96062.50;4388925;32;20232;-48
2023/04/04 00:02:48;;;;;;;1.40;0.50;;;;;;;2.35;60.40;96067.00;4386596;32;20238;-51
2023/04/04 00:05:13;;;;;;;0.37;0.30;;;;;;;2.34;60.84;96054.94;4370499;32;20184;-53
2023/04/04 00:07:38;;;;;;;0.73;0.73;;;;;;;2.48;60.79;96052.94;4377150;32;20351;-49
2023/04/04 00:10:04;;;;;;;0.67;0.67;;;;;;;2.57;60.48;96054.22;4387355;32;20230;-52
2023/04/04 00:12:30;;;;;;;0.60;0.60;;;;;;;2.41;60.62;96058.28;4378089;32;20191;-51
2023/04/04 00:14:56;;;;;;;0.30;0.30;;;;;;;2.35;60.47;96048.69;4377200;32;20206;-50
2023/04/04 00:17:21;;;;;;;0.53;0.53;;;;;;;2.34;60.81;96053.13;4386545;32;20228;-51
2023/04/04 00:19:46;;;;;;;0.43;0.43;;;;;;;2.26;60.79;96044.81;4388650;32;20299;-48
2023/04/04 00:22:14;;;;;;;0.80;0.80;;;;;;;2.25;61.11;96045.81;4378305;32;20230;-48
2023/04/04 00:24:40;;;;;;;0.40;0.40;;;;;;;2.25;61.00;96046.63;4387876;32;20228;-50
2023/04/04 00:27:05;;;;;;;1.07;0.73;;;;;;;2.37;61.08;96044.03;4389974;32;20281;-47
2023/04/04 00:29:33;;;;;;;0.40;0.40;;;;;;;2.14;61.24;96043.94;4382360;32;20188;-50
2023/04/04 00:31:58;;;;;;;0.50;0.50;;;;;;;2.24;61.67;96037.19;4391108;32;20184;-52
2023/04/04 00:34:24;;;;;;;0.70;0.70;;;;;;;2.41;60.81;96034.72;4389006;32;20287;-51
2023/04/04 00:36:49;;;;;;;0.57;0.57;;;;;;;2.15;60.98;96033.25;4378338;32;20188;-49
2023/04/04 00:39:15;;;;;;;0.37;0.37;;;;;;;2.15;61.46;96024.63;4391696;32;20211;-51
2023/04/04 00:41:40;;;;;;;0.80;0.80;;;;;;;2.15;61.27;96029.84;4373527;32;20244;-52
2023/04/04 00:44:06;;;;;;;0.73;0.73;;;;;;;2.13;61.79;96021.41;4388615;32;20184;-50
2023/04/04 00:46:32;;;;;;;0.20;0.20;;;;;;;2.03;62.25;96022.78;4372222;32;20243;-51
2023/04/04 00:48:58;;;;;;;1.03;0.67;;;;;;;2.14;61.97;96020.41;4389104;32;20324;-50
2023/04/04 00:51:23;;;;;;;0.57;0.57;;;;;;;2.24;61.83;96018.06;4378191;32;20287;-48
2023/04/04 00:53:49;;;;;;;1.33;1.23;;;;;;;2.16;61.53;96020.97;4374931;32;20180;-50
2023/04/04 00:56:15;;;;;;;0.87;0.67;;;;;;;2.27;61.60;96015.00;4369931;32;20196;-49
2023/04/04 00:58:45;;;;;;;0.70;0.70;;;;;;;2.25;61.39;96011.81;4391414;32;20329;-49
2023/04/04 01:01:10;;;;;;;0.50;0.50;;;;;;;2.25;61.61;96006.56;4364159;32;20196;-47
2023/04/04 01:03:36;;;;;;;0.93;0.93;;;;;;;2.42;61.00;96007.50;4392614;32;20327;-51
2023/04/04 01:06:02;;;;;;;0.93;0.63;;;;;;;2.27;61.12;96007.94;4386803;32;20248;-50
2023/04/04 01:08:29;;;;;;;0.43;0.43;;;;;;;2.24;61.40;96010.22;4391531;32;20325;-50
2023/04/04 01:10:55;;;;;;;0.40;0.40;;;;;;;2.21;61.07;96008.03;4391450;32;20288;-49
2023/04/04 01:13:20;;;;;;;0.20;0.20;;;;;;;2.11;61.55;96002.53;4378193;32;20295;-51
2023/04/04 01:15:46;;;;;;;0.43;0.43;;;;;;;2.04;62.21;96002.62;4375937;32;20185;-49
2023/04/04 01:18:16;;;;;;;0.57;0.53;;;;;;;2.06;62.21;96003.22;4372141;32;20278;-51
2023/04/04 01:20:51;;;;;;;0.67;0.67;;;;;;;1.97;61.79;96002.72;4389583;32;20237;-52
2023/04/04 01:23:17;;;;;;;0.17;0.17;;;;;;;1.67;62.65;95997.47;4389637;32;20306;-51
2023/04/04 01:25:42;;;;;;;1.00;0.80;;;;;;;1.57;63.33;95997.19;4374710;32;20315;-49
2023/04/04 01:28:08;;;;;;;1.80;0.50;;;;;;;1.85;63.21;95993.25;4386817;32;20291;-51
2023/04/04 01:30:35;;;;;;;0.33;0.33;;;;;;;1.97;62.73;95992.25;4376394;32;20180;-52
2023/04/04 01:33:08;;;;;;;0.40;0.40;;;;;;;2.02;63.07;95994.22;4380812;32;20199;-51
2023/04/04 01:35:41;;;;;;;0.63;0.63;;;;;;;1.94;62.25;95990.09;4377934;32;20292;-53
2023/04/04 01:38:34;;;;;;;0.70;0.60;;;;;;;1.99;62.79;95987.59;4369674;32;20306;-51
2023/04/04 01:41:03;;;;;;;0.20;0.20;;;;;;;2.08;62.68;95987.28;4367788;32;20281;-52
2023/04/04 01:43:31;;;;;;;0.47;0.47;;;;;;;1.95;62.78;95988.25;4388651;32;20288;-49
2023/04/04 01:45:58;;;;;;;0.10;0.10;;;;;;;1.99;62.55;95984.97;4388742;32;23371;-47
2023/04/04 01:48:23;;;;;;;0.87;0.77;;;;;;;1.76;63.49;95982.28;4391308;32;20280;-50
2023/04/04 01:50:49;;;;;;;0.97;0.80;;;;;;;1.71;63.61;95982.13;4377061;32;20356;-50
2023/04/04 01:53:14;;;;;;;0.83;0.83;;;;;;;1.72;64.17;95983.72;4377537;32;20184;-52
2023/04/04 01:55:40;;;;;;;0.87;0.87;;;;;;;1.50;64.70;95980.78;4375329;32;20188;-48
2023/04/04 01:58:05;;;;;;;0.53;0.53;;;;;;;1.72;64.53;95978.50;4393144;32;20210;-52
2023/04/04 02:00:30;;;;;;;2.10;0.60;;;;;;;1.75;64.40;95980.69;4384719;32;20180;-49
2023/04/04 02:02:56;;;;;;;0.20;0.20;;;;;;;1.61;64.41;95982.69;4391260;32;20185;-47
2023/04/04 02:05:21;;;;;;;5.37;0.83;;;;;;;1.60;64.75;95980.28;4389323;32;20420;-51
2023/04/04 02:07:50;;;;;;;0.80;0.80;;;;;;;1.38;65.35;95982.56;4376296;32;20179;-50
2023/04/04 02:10:15;;;;;;;0.32;0.30;;;;;;;1.49;65.38;95978.41;4387858;32;20196;-50
2023/04/04 02:12:41;;;;;;;0.20;0.20;;;;;;;1.51;65.45;95986.81;4375247;32;20254;-50
2023/04/04 02:15:06;;;;;;;0.37;0.37;;;;;;;1.54;65.96;95978.53;4389492;32;20207;-52
2023/04/04 02:17:32;;;;;;;0.20;0.20;;;;;;;1.60;65.90;95980.28;4386474;32;20236;-49
2023/04/04 02:19:57;;;;;;;0.10;0.10;;;;;;;1.47;65.83;95985.66;4377416;32;20296;-49
2023/04/04 02:22:22;;;;;;;2.00;1.57;;;;;;;1.47;66.01;95983.03;4390484;32;20185;-49
2023/04/04 02:24:47;;;;;;;0.77;0.77;;;;;;;1.63;65.96;95987.69;4377257;32;20210;-51
2023/04/04 02:27:13;;;;;;;0.73;0.73;;;;;;;1.61;65.63;95977.44;4391825;32;20272;-49
2023/04/04 02:29:38;;;;;;;0.30;0.30;;;;;;;1.49;66.16;95975.78;4391120;32;20189;-53
2023/04/04 02:32:04;;;;;;;0.40;0.40;;;;;;;1.54;66.18;95975.94;4390590;32;20214;-53
2023/04/04 02:34:29;;;;;;;0.37;0.37;;;;;;;1.37;66.01;95970.50;4388842;32;20202;-52
2023/04/04 02:36:54;;;;;;;1.00;1.00;;;;;;;1.47;66.53;95969.97;4389272;32;20200;-51
2023/04/04 02:39:19;;;;;;;1.07;1.07;;;;;;;1.62;66.09;95967.78;4375393;32;20246;-49
2023/04/04 02:41:46;;;;;;;0.27;0.27;;;;;;;1.71;65.60;95966.44;4390464;32;20210;-49
2023/04/04 02:44:11;;;;;;;0.57;0.57;;;;;;;1.59;66.19;95965.62;4376974;32;20242;-51
2023/04/04 02:46:36;;;;;;;0.53;0.53;;;;;;;1.45;66.52;95972.03;4390296;32;20277;-49
2023/04/04 02:49:03;;;;;;;0.40;0.40;;;;;;;1.61;66.20;95967.00;4389456;32;20192;-48
2023/04/04 02:51:28;;;;;;;0.20;0.20;;;;;;;1.65;65.81;95965.53;4386664;32;20247;-51
2023/04/04 02:53:53;;;;;;;0.60;0.27;;;;;;;1.62;66.30;95975.63;4387545;32;20326;-49
2023/04/04 02:56:19;;;;;;;0.20;0.20;;;;;;;1.62;66.25;95967.78;4386554;32;20207;-52
2023/04/04 02:58:44;;;;;;;0.47;0.47;;;;;;;1.66;66.22;95966.34;4383465;32;20216;-52
2023/04/04 03:01:10;;;;;;;0.57;0.53;;;;;;;1.41;67.12;95966.44;4388875;32;20252;-50
2023/04/04 03:03:38;;;;;;;0.30;0.30;;;;;;;1.34;67.66;95971.75;4348688;32;20255;-56
2023/04/04 03:06:03;;;;;;;0.43;0.43;;;;;;;1.34;66.99;95966.50;4369070;32;20189;-50
2023/04/04 03:08:28;;;;;;;0.63;0.63;;;;;;;1.19;67.80;95963.47;4390334;32;20280;-52
2023/04/04 03:10:54;;;;;;;0.23;0.23;;;;;;;1.40;67.31;95957.00;4389612;32;20197;-52
2023/04/04 03:13:19;;;;;;;1.27;0.90;;;;;;;1.24;67.03;95962.84;4388261;32;20204;-49
2023/04/04 03:15:45;;;;;;;0.30;0.30;;;;;;;1.30;67.68;95962.72;4369310;32;20199;-50
2023/04/04 03:18:11;;;;;;;0.53;0.53;;;;;;;1.33;67.30;95959.69;4391174;32;20180;-50
2023/04/04 03:20:36;;;;;;;2.47;1.00;;;;;;;1.13;67.81;95953.87;4381133;32;20263;-49
2023/04/04 03:23:02;;;;;;;0.37;0.37;;;;;;;1.15;67.71;95959.69;4377384;32;20172;-53
2023/04/04 03:25:27;;;;;;;0.93;0.47;;;;;;;1.06;67.92;95958.38;4387753;32;20274;-51
2023/04/04 03:27:53;;;;;;;0.50;0.50;;;;;;;1.08;68.12;95964.19;4372030;32;20187;-49
2023/04/04 03:30:18;;;;;;;0.43;0.43;;;;;;;1.01;67.78;95960.87;4388599;32;20249;-50
2023/04/04 03:32:43;;;;;;;4.90;0.63;;;;;;;1.02;68.46;95952.81;4378640;32;20184;-50
2023/04/04 03:35:09;;;;;;;0.93;0.93;;;;;;;1.00;68.47;95960.06;4376315;32;20188;-50
2023/04/04 03:37:34;;;;;;;0.10;0.10;;;;;;;0.88;68.35;95956.56;4393128;32;20234;-51
2023/04/04 03:40:00;;;;;;;0.23;0.23;;;;;;;1.00;68.86;95952.22;4379167;32;20197;-49
2023/04/04 03:42:25;;;;;;;0.37;0.33;;;;;;;1.11;68.53;95953.31;4377411;32;20221;-50
2023/04/04 03:44:52;;;;;;;3.50;1.20;;;;;;;1.04;68.76;95961.22;4387251;32;20228;-53
2023/04/04 03:47:18;;;;;;;27.60;1.30;;;;;;;0.92;68.88;95962.97;4372668;32;20189;-48
2023/04/04 03:49:43;;;;;;;0.20;0.20;;;;;;;0.82;69.03;95959.25;4393238;32;20195;-52
2023/04/04 03:52:08;;;;;;;1.40;0.87;;;;;;;0.59;69.96;95965.09;4393523;32;20207;-50
2023/04/04 03:54:34;;;;;;;0.23;0.23;;;;;;;0.71;69.75;95973.81;4381482;32;20185;-51
2023/04/04 03:56:59;;;;;;;0.50;0.50;;;;;;;0.43;70.88;95973.44;4391506;32;20184;-52
2023/04/04 03:59:24;;;;;;;0.47;0.47;;;;;;;0.36;71.41;95967.50;4392963;32;20188;-50
2023/04/04 04:01:50;;;;;;;0.60;0.60;;;;;;;0.33;71.76;95979.97;4359147;32;20218;-58
2023/04/04 04:04:15;;;;;;;3.80;0.50;;;;;;;0.33;71.73;95979.16;4393241;32;20192;-52
2023/04/04 04:06:41;;;;;;;0.60;0.53;;;;;;;0.43;71.87;95987.28;4391103;32;20200;-50
2023/04/04 04:09:06;;;;;;;0.40;0.40;;;;;;;0.47;71.30;95977.22;4377918;32;20204;-50
2023/04/04 04:11:32;;;;;;;0.47;0.47;;;;;;;0.53;71.28;95974.56;4392577;32;20211;-53
2023/04/04 04:13:59;;;;;;;0.70;0.70;;;;;;;0.71;70.53;95980.84;4392612;32;20268;-53
2023/04/04 04:16:25;;;;;;;0.45;0.45;;;;;;;0.77;70.43;95990.44;4391743;32;20228;-52
2023/04/04 04:21:43;;;;;;;0.10;0.10;;;;;;;0.51;71.17;95979.22;4348716;32;20189;-50
2023/04/04 04:24:09;;;;;;;0.33;0.33;;;;;;;0.62;71.11;95975.88;4385841;32;20229;-51
2023/04/04 04:26:34;;;;;;;0.43;0.43;;;;;;;0.69;70.65;95973.22;4378319;32;20207;-50
2023/04/04 04:29:00;;;;;;;0.60;0.60;;;;;;;0.61;70.40;95976.94;4391839;32;20249;-49
2023/04/04 04:31:25;;;;;;;0.53;0.53;;;;;;;0.63;70.82;95992.34;4385894;32;20189;-52
2023/04/04 04:33:51;;;;;;;0.70;0.70;;;;;;;0.52;70.99;95993.84;4389303;32;20195;-49
2023/04/04 04:36:16;;;;;;;0.67;0.67;;;;;;;0.47;71.33;95990.28;4374053;32;20195;-49
2023/04/04 04:38:41;;;;;;;0.13;0.13;;;;;;;0.63;70.92;95987.91;4378469;32;20220;-51
2023/04/04 04:41:07;;;;;;;2.33;0.73;;;;;;;0.34;71.50;95991.19;4376482;32;20204;-52
2023/04/04 04:43:32;;;;;;;0.20;0.20;;;;;;;0.47;71.71;95991.06;4390792;32;20191;-53
2023/04/04 04:45:57;;;;;;;2.03;0.73;;;;;;;0.27;71.64;95995.66;4373827;32;20278;-50
2023/04/04 04:48:23;;;;;;;0.30;0.30;;;;;;;0.32;72.22;95993.22;4384342;32;20189;-52
2023/04/04 04:50:48;;;;;;;0.33;0.33;;;;;;;0.32;72.04;95988.78;4390782;32;20273;-51
2023/04/04 04:53:13;;;;;;;1.30;0.80;;;;;;;0.52;71.33;95993.84;4377123;32;20189;-48
2023/04/04 04:55:39;;;;;;;0.30;0.30;;;;;;;0.54;70.77;95989.22;4389072;32;20184;-51
2023/04/04 04:58:05;;;;;;;0.30;0.30;;;;;;;0.57;70.60;95995.81;4379876;32;20204;-50
2023/04/04 05:00:31;;;;;;;1.98;0.62;;;;;;;0.31;71.44;95991.63;4377432;32;20207;-53
2023/04/04 05:02:59;;;;;;;2.33;1.17;;;;;;;0.34;71.67;95999.03;4372242;32;20224;-52
2023/04/04 05:05:25;;;;;;;0.28;0.28;;;;;;;0.32;71.69;95993.22;4376096;32;20227;-54
2023/04/04 05:07:50;;;;;;;1.60;0.40;;;;;;;0.29;71.42;95998.84;4373554;32;20203;-51
2023/04/04 05:10:15;;;;;;;0.40;0.40;;;;;;;0.31;71.74;95994.22;4391687;32;20203;-52
2023/04/04 05:12:44;;;;;;;0.60;0.60;;;;;;;0.27;71.57;96001.66;4386722;32;20203;-50
2023/04/04 05:15:11;;;;;;;0.55;0.55;;;;;;;0.20;72.00;95998.31;4377637;32;20199;-53
2023/04/04 05:17:36;;;;;;;0.40;0.40;;;;;;;0.36;71.33;96001.41;4385022;32;20259;-50
2023/04/04 05:20:02;;;;;;;0.77;0.73;;;;;;;0.43;71.39;96000.34;4383826;32;20213;-51
2023/04/04 05:22:27;;;;;;;0.60;0.60;;;;;;;0.49;70.89;96006.53;4388050;32;20313;-53
2023/04/04 05:24:53;;;;;;;0.20;0.20;;;;;;;0.48;70.62;96008.34;4382181;32;20192;-50
2023/04/04 05:27:18;;;;;;;1.40;0.60;;;;;;;0.45;70.88;96007.94;4371111;32;20199;-50
2023/04/04 05:29:45;;;;;;;0.40;0.40;;;;;;;0.40;70.90;96010.44;4373170;32;20188;-53
2023/04/04 05:32:10;;;;;;;0.40;0.40;;;;;;;0.39;70.93;96009.63;4388213;32;20188;-52
2023/04/04 05:34:35;;;;;;;2.40;0.97;;;;;;;0.37;70.67;96006.44;4386551;32;20218;-49
2023/04/04 05:37:01;;;;;;;0.57;0.57;;;;;;;0.42;70.96;96003.97;4390776;32;20306;-48
2023/04/04 05:39:26;;;;;;;0.87;0.83;;;;;;;0.45;70.68;96011.38;4390568;32;20188;-51
2023/04/04 05:41:51;;;;;;;1.23;0.80;;;;;;;0.60;69.69;96009.25;4371775;32;20232;-51
2023/04/04 05:44:17;;;;;;;0.23;0.23;;;;;;;0.52;70.01;96013.94;4388385;32;20234;-49
2023/04/04 05:46:42;;;;;;;0.70;0.70;;;;;;;0.47;69.74;96022.37;4379969;32;20250;-53
2023/04/04 05:49:07;;;;;;;1.20;0.30;;;;;;;0.28;70.29;96018.12;4388132;32;20199;-49
2023/04/04 05:51:32;;;;;;;0.20;0.20;;;;;;;0.45;70.24;96013.19;4386720;32;20181;-48
2023/04/04 05:53:58;;;;;;;1.17;1.07;;;;;;;0.37;70.47;96019.47;4390297;32;20234;-50
2023/04/04 05:56:23;;;;;;;0.60;0.60;;;;;;;0.42;70.17;96014.41;4373601;32;20232;-52
2023/04/04 05:58:49;;;;;;;0.80;0.80;;;;;;;0.40;70.32;96015.66;4380743;32;20189;-51
2023/04/04 06:01:15;;;;;;;1.13;1.13;;;;;;;0.55;70.00;96014.31;4387045;32;20188;-51
2023/04/04 06:03:40;;;;;;;1.13;0.37;;;;;;;0.83;69.48;96015.69;4372200;32;20281;-49
2023/04/04 06:06:06;;;;;;;3.60;2.10;;;;;;;0.67;68.58;96011.78;4390723;32;20243;-49
2023/04/04 06:08:31;;;;;;;0.53;0.53;;;;;;;0.77;68.37;96021.75;4366655;32;20203;-51
2023/04/04 06:10:57;;;;;;;1.73;0.73;;;;;;;1.01;68.41;96019.12;4387954;32;20215;-52
2023/04/04 06:13:22;;;;;;;0.90;0.90;;;;;;;1.01;67.65;96018.34;4389856;32;20211;-50
2023/04/04 06:15:47;;;;;;;1.03;1.03;;;;;;;1.00;67.26;96011.50;4390070;32;20264;-52
2023/04/04 06:18:13;;;;;;;0.23;0.23;;;;;;;1.09;66.90;96012.81;4383301;32;20188;-50
2023/04/04 06:20:38;;;;;;;2.80;1.03;;;;;;;1.07;66.09;96014.03;4390503;32;20234;-53
2023/04/04 06:23:03;;;;;;;0.63;0.63;;;;;;;0.81;66.52;96013.28;4392453;32;20195;-47
2023/04/04 06:25:30;;;;;;;5.43;1.30;;;;;;;1.05;65.67;96019.47;4365589;32;20196;-51
2023/04/04 06:27:55;;;;;;;1.17;1.17;;;;;;;1.04;66.27;96023.91;4383771;32;20184;-50
2023/04/04 06:30:21;;;;;;;2.60;1.70;;;;;;;1.09;65.78;96020.66;4391444;32;20250;-52
2023/04/04 06:32:46;;;;;;;1.03;1.03;;;;;;;1.11;65.28;96018.62;4381376;32;20230;-51
2023/04/04 06:35:11;;;;;;;0.50;0.50;;;;;;;1.05;64.89;96014.25;4382693;32;20201;-51
2023/04/04 06:37:37;;;;;;;0.70;0.70;;;;;;;1.17;63.91;96009.94;4376333;32;20346;-50
2023/04/04 06:40:03;;;;;;;0.70;0.70;;;;;;;1.13;63.37;96011.38;4370284;32;20185;-50
2023/04/04 06:42:28;;;;;;;0.63;0.63;;;;;;;1.27;63.73;96007.59;4384913;32;20248;-52
2023/04/04 06:44:53;;;;;;;0.67;0.67;;;;;;;1.40;62.74;96005.88;4385264;32;20269;-52
2023/04/04 06:47:20;;;;;;;0.57;0.57;;;;;;;1.45;61.75;96003.41;4374434;32;20252;-52
2023/04/04 06:49:45;;;;;;;0.73;0.65;;;;;;;1.43;61.50;96010.66;4377109;32;20191;-50
2023/04/04 06:52:10;;;;;;;0.60;0.60;;;;;;;1.57;61.54;96001.63;4386713;32;20196;-50
2023/04/04 06:54:36;;;;;;;0.30;0.30;;;;;;;1.62;61.36;96007.00;4379150;32;20250;-48
2023/04/04 06:57:02;;;;;;;0.30;0.30;;;;;;;1.58;61.10;96009.25;4389649;32;20199;-50
2023/04/04 06:59:27;;;;;;;1.93;1.83;;;;;;;1.65;60.99;96001.34;4377822;32;20244;-52
2023/04/04 07:01:52;;;;;;;1.00;0.80;;;;;;;1.70;61.82;96001.47;4388068;32;20314;-46
2023/04/04 07:04:19;;;;;;;1.73;1.67;;;;;;;1.71;60.13;95995.22;4385844;32;20206;-49
2023/04/04 07:06:44;;;;;;;0.70;0.70;;;;;;;1.64;60.36;95997.94;4392925;32;20230;-51
2023/04/04 07:09:10;;;;;;;0.93;0.83;;;;;;;1.78;59.56;96003.78;4371532;32;20292;-47
2023/04/04 07:11:35;;;;;;;0.97;0.70;;;;;;;1.83;58.87;95997.91;4382799;32;20184;-50
2023/04/04 07:14:01;;;;;;;0.33;0.33;;;;;;;1.67;59.14;95997.47;4377029;32;20314;-51
2023/04/04 07:16:27;;;;;;;0.77;0.77;;;;;;;1.79;58.85;96000.16;4393361;32;20193;-53
2023/04/04 07:18:52;;;;;;;0.73;0.73;;;;;;;1.93;59.33;95996.31;4380106;32;20250;-52
2023/04/04 07:21:19;;;;;;;0.97;0.93;;;;;;;1.88;58.77;96001.41;4392574;32;20239;-52
2023/04/04 07:23:44;;;;;;;0.83;0.83;;;;;;;1.85;58.84;96003.72;4392266;32;20207;-48
2023/04/04 07:26:10;;;;;;;0.50;0.50;;;;;;;1.85;58.71;96004.50;4376999;32;20336;-51
2023/04/04 07:28:36;;;;;;;0.40;0.40;;;;;;;2.02;58.23;95992.41;4377331;32;20223;-51
2023/04/04 07:31:02;;;;;;;0.57;0.57;;;;;;;2.15;57.37;95995.81;4393148;32;20239;-49
2023/04/04 07:33:27;;;;;;;0.80;0.80;;;;;;;2.12;57.89;95997.06;4388444;32;20248;-53
2023/04/04 07:35:53;;;;;;;0.70;0.70;;;;;;;2.19;57.45;95995.16;4374043;32;20381;-52
2023/04/04 07:38:19;;;;;;;0.60;0.60;;;;;;;2.17;57.37;95999.03;4388176;32;20231;-51
2023/04/04 07:40:44;;;;;;;0.97;0.97;;;;;;;2.28;57.47;95996.44;4379667;32;20264;-52
2023/04/04 07:43:09;;;;;;;0.60;0.60;;;;;;;2.13;56.80;95997.88;4384138;32;20184;-49
2023/04/04 07:45:35;;;;;;;0.60;0.60;;;;;;;2.20;57.66;95998.59;4395382;32;20218;-50
2023/04/04 07:48:01;;;;;;;0.97;0.97;;;;;;;2.32;57.02;96002.00;4370802;32;20244;-53
2023/04/04 07:50:26;;;;;;;0.70;0.70;;;;;;;2.42;55.78;95994.44;4377560;32;20181;-51
2023/04/04 07:52:54;;;;;;;3.90;0.37;;;;;;;2.53;54.96;96001.47;4392046;32;20203;-51
2023/04/04 07:55:23;;;;;;;0.50;0.50;;;;;;;2.45;54.68;95993.19;4386491;32;20267;-52
2023/04/04 07:57:49;;;;;;;0.50;0.50;;;;;;;2.63;56.35;95991.25;4377029;32;20293;-50
2023/04/04 08:00:16;;;;;;;0.77;0.77;;;;;;;2.62;54.76;95994.91;4374413;32;20311;-51
2023/04/04 08:02:42;;;;;;;0.40;0.40;;;;;;;2.64;54.00;95992.06;4375372;32;20184;-47
2023/04/04 08:05:08;;;;;;;0.67;0.67;;;;;;;2.38;54.21;95988.84;4389204;32;20355;-52
2023/04/04 08:07:33;;;;;;;1.13;1.13;;;;;;;2.55;53.76;95988.16;4380640;32;20280;-49
2023/04/04 08:09:58;;;;;;;1.50;1.40;;;;;;;2.59;53.67;95992.75;4376858;32;20204;-48
2023/04/04 08:12:24;;;;;;;0.90;0.90;;;;;;;2.76;53.12;95998.09;4375161;32;20217;-52
2023/04/04 08:14:50;;;;;;;1.03;0.97;;;;;;;2.78;52.14;95987.41;4382795;32;20242;-53
2023/04/04 08:17:17;;;;;;;0.80;0.80;;;;;;;2.75;52.23;95994.69;4381759;32;20258;-51
2023/04/04 08:19:43;;;;;;;2.20;0.83;;;;;;;2.60;51.83;95994.34;4382211;32;20264;-51
2023/04/04 08:22:09;;;;;;;0.40;0.40;;;;;;;2.72;52.23;96002.19;4388511;32;20303;-52
2023/04/04 08:24:35;;;;;;;0.60;0.60;;;;;;;2.81;51.80;95990.38;4380272;32;20241;-50
2023/04/04 08:27:01;;;;;;;2.97;2.03;;;;;;;2.72;52.12;95991.72;4368832;32;20181;-52
2023/04/04 08:29:27;;;;;;;1.37;1.37;;;;;;;2.80;52.03;95988.75;4385841;32;20364;-50
2023/04/04 08:31:53;;;;;;;0.80;0.80;;;;;;;3.01;51.26;95993.44;4371713;32;20247;-50
2023/04/04 08:34:19;;;;;;;0.97;0.97;;;;;;;3.31;51.49;95995.91;4385835;32;20391;-51
2023/04/04 08:36:45;;;;;;;0.43;0.43;;;;;;;3.25;49.93;95986.34;4385720;32;20207;-50
2023/04/04 08:39:10;;;;;;;2.10;0.73;;;;;;;3.01;50.49;96008.34;4377111;32;20361;-49
2023/04/04 08:41:36;;;;;;;0.57;0.57;;;;;;;2.85;51.15;96009.03;4381932;32;20181;-53
2023/04/04 08:44:04;;;;;;;0.80;0.80;;;;;;;2.85;51.99;95998.56;4381453;32;20199;-48
2023/04/04 08:46:29;;;;;;;0.77;0.77;;;;;;;2.92;51.31;95988.75;4390342;32;20199;-52
2023/04/04 08:48:55;;;;;;;0.90;0.90;;;;;;;3.15;51.08;96001.03;4370380;32;20293;-50
2023/04/04 08:51:21;;;;;;;0.93;0.93;;;;;;;3.42;49.56;96005.56;4369845;32;20185;-52
2023/04/04 08:53:47;;;;;;;0.80;0.80;;;;;;;3.25;48.82;95994.22;4390104;32;20295;-48
2023/04/04 08:56:13;;;;;;;0.93;0.93;;;;;;;3.11;50.16;96003.34;4383481;32;20256;-51
2023/04/04 08:58:38;;;;;;;0.77;0.77;;;;;;;2.96;49.59;96008.25;4372866;32;20207;-56
2023/04/04 09:01:05;;;;;;;0.87;0.77;;;;;;;2.99;50.21;96005.97;4375407;32;20180;-50
2023/04/04 09:03:33;;;;;;;0.53;0.53;;;;;;;3.17;48.65;96007.66;4372002;32;20248;-49
2023/04/04 09:06:00;;;;;;;0.73;0.73;;;;;;;3.33;48.52;96006.94;4381834;32;20400;-52
2023/04/04 09:08:27;;;;;;;0.43;0.43;;;;;;;3.41;48.72;95998.75;4378335;32;20278;-53
2023/04/04 09:10:53;;;;;;;0.70;0.70;;;;;;;3.58;48.62;96004.06;4384211;32;20348;-51
2023/04/04 09:13:19;;;;;;;0.33;0.33;;;;;;;3.67;47.52;96004.50;4374956;32;20308;-49
2023/04/04 09:15:47;;;;;;;0.60;0.60;;;;;;;3.41;47.08;96003.19;4386777;32;20230;-51
2023/04/04 09:18:12;;;;;;;0.60;0.60;;;;;;;3.41;46.65;95998.75;4377973;32;20298;-53
2023/04/04 09:20:42;;;;;;;1.10;1.00;;;;;;;3.45;46.31;95999.06;4378923;32;20336;-51
2023/04/04 09:23:12;;;;;;;0.50;0.50;;;;;;;3.70;46.94;96001.41;4366428;32;20200;-52
2023/04/04 09:25:45;;;;;;;0.53;0.53;;;;;;;3.65;46.40;96001.31;4374597;32;20326;-49
2023/04/04 09:28:11;;;;;;;1.03;1.03;;;;;;;3.70;46.11;95996.16;4376232;32;20281;-52
2023/04/04 09:30:37;;;;;;;0.53;0.53;;;;;;;3.73;46.99;96000.94;4389557;32;20273;-52
2023/04/04 09:33:08;;;;;;;0.83;0.83;;;;;;;3.79;45.50;96011.28;4386830;32;20268;-53
2023/04/04 09:35:36;;;;;;;0.60;0.60;;;;;;;3.49;44.52;96009.91;4384942;32;20252;-58
2023/04/04 09:38:02;;;;;;;0.50;0.50;;;;;;;3.47;45.62;96012.75;4378388;32;20268;-58
2023/04/04 09:40:29;;;;;;;1.03;1.03;;;;;;;3.65;45.84;96007.34;4392499;32;20288;-58
2023/04/04 09:42:59;;;;;;;0.57;0.57;;;;;;;3.58;45.27;96011.12;4390130;32;20281;-58
2023/04/04 09:45:25;;;;;;;0.50;0.50;;;;;;;3.54;45.57;96017.84;4377515;32;20342;-58
2023/04/04 09:47:51;;;;;;;0.40;0.40;;;;;;;3.49;45.46;96008.09;4375534;32;20276;-58
2023/04/04 09:50:24;;;;;;;0.77;0.77;;;;;;;3.64;44.92;96007.59;4391616;32;20306;-58
2023/04/04 09:52:51;;;;;;;0.50;0.50;;;;;;;3.41;44.53;96013.69;4377078;32;20364;-58
2023/04/04 09:55:17;;;;;;;1.70;1.00;;;;;;;3.71;44.58;96018.75;4389621;32;20290;-59
2023/04/04 09:57:43;;;;;;;0.30;0.30;;;;;;;3.76;43.83;96013.59;4375198;32;20276;-58
2023/04/04 10:00:11;;;;;;;1.00;1.00;;;;;;;3.76;43.20;96013.59;4376165;32;20346;-58
2023/04/04 10:02:44;;;;;;;0.90;0.83;;;;;;;3.70;43.42;96011.91;4385899;32;20224;-58
2023/04/04 10:05:10;;;;;;;0.20;0.20;;;;;;;3.90;44.21;96008.88;4376481;32;20362;-58
2023/04/04 10:07:38;;;;;;;0.80;0.80;;;;;;;3.98;44.28;96014.53;4391754;32;20276;-58
2023/04/04 10:10:08;;;;;;;0.33;0.33;;;;;;;3.91;44.79;96008.66;4380313;32;20184;-58
2023/04/04 10:12:35;;;;;;;1.23;1.07;;;;;;;3.86;45.06;96018.25;4390387;32;20299;-58
2023/04/04 10:15:01;;;;;;;0.87;0.87;;;;;;;3.90;44.21;96012.31;4390944;32;20303;-58
2023/04/04 10:17:38;;;;;;;0.67;0.67;;;;;;;4.07;44.51;96012.34;4385787;32;20268;-58
2023/04/04 10:20:05;;;;;;;0.63;0.63;;;;;;;3.96;44.52;96013.16;4390096;32;20272;-58
2023/04/04 10:22:37;;;;;;;0.20;0.20;;;;;;;4.04;45.39;96005.72;4388837;32;20316;-58
2023/04/04 10:25:06;;;;;;;0.67;0.67;;;;;;;4.29;43.18;96010.62;4378351;32;20284;-58
2023/04/04 10:27:33;;;;;;;1.20;1.10;;;;;;;4.08;43.57;96014.75;4376860;32;20312;-59
2023/04/04 10:29:58;;;;;;;0.67;0.67;;;;;;;3.93;44.21;96022.34;4377574;32;20351;-58
2023/04/04 10:32:36;;;;;;;4.43;1.17;;;;;;;4.13;44.25;96014.03;4390769;32;20335;-58
2023/04/04 10:35:09;;;;;;;0.30;0.30;;;;;;;4.03;43.89;96022.50;4384317;32;20219;-58
2023/04/04 10:37:41;;;;;;;0.77;0.77;;;;;;;3.96;44.15;96010.53;4387598;32;20276;-58
2023/04/04 10:40:09;;;;;;;0.83;0.83;;;;;;;3.85;43.78;96014.03;4390423;32;20333;-58
2023/04/04 10:42:42;;;;;;;1.07;1.07;;;;;;;3.73;43.95;96014.06;4377385;32;20295;-58
2023/04/04 10:45:09;;;;;;;0.60;0.60;;;;;;;3.81;44.49;96013.69;4374922;32;20386;-58
2023/04/04 10:47:36;;;;;;;6.97;1.00;;;;;;;3.67;43.92;96022.87;4375366;32;20282;-58
2023/04/04 10:50:05;;;;;;;0.63;0.50;;;;;;;3.69;43.95;96020.81;4375371;32;20273;-58
2023/04/04 10:52:31;;;;;;;1.17;1.07;;;;;;;3.86;44.07;96016.41;4373100;32;20272;-58
2023/04/04 10:55:00;;;;;;;0.87;0.87;;;;;;;4.20;43.49;96006.00;4385456;32;20281;-58
2023/04/04 10:57:27;;;;;;;0.43;0.43;;;;;;;4.21;43.28;96007.59;4385410;32;20196;-58
2023/04/04 10:59:57;;;;;;;0.50;0.50;;;;;;;4.06;43.38;96019.41;4374997;32;20280;-58
2023/04/04 11:02:49;;;;;;;1.37;0.90;;;;;;;4.12;42.67;96021.13;4374249;32;20288;-58
2023/04/04 11:05:25;;;;;;;0.97;0.97;;;;;;;4.07;43.34;96012.34;4387133;32;20329;-58
2023/04/04 11:08:05;;;;;;;0.40;0.40;;;;;;;4.14;43.74;96002.50;4387099;32;20275;-58
2023/04/04 11:10:34;;;;;;;1.20;1.10;;;;;;;4.31;43.53;95995.44;4387354;32;20280;-58
2023/04/04 11:13:07;;;;;;;0.63;0.63;;;;;;;4.31;43.92;95992.81;4378853;32;20391;-58
2023/04/04 11:15:57;;;;;;;0.40;0.40;;;;;;;4.52;43.78;96009.72;4390040;32;20284;-58
2023/04/04 11:18:42;;;;;;;0.77;0.77;;;;;;;4.39;43.38;95999.50;4386370;32;20280;-58
2023/04/04 11:21:19;;;;;;;0.67;0.67;;;;;;;4.33;43.70;95996.00;4379245;32;20280;-58
2023/04/04 11:23:50;;;;;;;4.27;1.40;;;;;;;4.31;43.23;95987.56;4388466;32;20329;-58
2023/04/04 11:26:25;;;;;;;0.80;0.80;;;;;;;3.93;43.96;96001.34;4386346;32;20280;-58
2023/04/04 11:28:50;;;;;;;2.30;1.67;;;;;;;4.05;44.59;95993.41;4376158;32;20291;-58
2023/04/04 11:31:16;;;;;;;1.40;0.93;;;;;;;4.17;44.85;95990.72;4373058;32;20307;-58
2023/04/04 11:34:07;;;;;;;5.40;1.00;;;;;;;3.95;44.09;95990.59;4382870;32;20215;-59
2023/04/04 11:36:35;;;;;;;1.20;1.20;;;;;;;3.90;43.79;95986.06;4374536;32;20188;-58
2023/04/04 11:39:25;;;;;;;0.87;0.87;;;;;;;3.86;44.78;95990.19;4388464;32;20276;-58
2023/04/04 11:41:51;;;;;;;0.40;0.40;;;;;;;4.01;44.88;95977.31;4374799;32;20281;-58